sensor_id;sensor_type;location;lat;lon;timestamp;P1;durP1;ratioP1;P2;durP2;ratioP2
61709;SDS011;47633;51.494;5.386;2022-08-14T00:01:14;4.80;;;3.28;;
61709;SDS011;47633;51.494;5.386;2022-08-14T00:03:39;5.10;;;3.20;;
61709;SDS011;47633;51.494;5.386;2022-08-14T00:06:05;5.80;;;3.47;;
61709;SDS011;47633;51.494;5.386;2022-08-14T00:08:30;4.47;;;3.20;;
61709;SDS011;47633;51.494;5.386;2022-08-14T00:10:55;5.03;;;3.60;;
61709;SDS011;47633;51.494;5.386;2022-08-14T00:13:21;5.38;;;3.30;;
61709;SDS011;47633;51.494;5.386;2022-08-14T00:15:49;5.22;;;3.35;;
61709;SDS011;47633;51.494;5.386;2022-08-14T00:18:23;4.95;;;3.28;;
61709;SDS011;47633;51.494;5.386;2022-08-14T00:20:49;4.72;;;3.38;;
61709;SDS011;47633;51.494;5.386;2022-08-14T00:23:16;4.43;;;3.25;;
61709;SDS011;47633;51.494;5.386;2022-08-14T00:25:43;5.20;;;3.28;;
61709;SDS011;47633;51.494;5.386;2022-08-14T00:28:12;4.47;;;3.00;;
61709;SDS011;47633;51.494;5.386;2022-08-14T00:30:38;4.55;;;3.15;;
61709;SDS011;47633;51.494;5.386;2022-08-14T00:33:04;4.68;;;3.30;;
61709;SDS011;47633;51.494;5.386;2022-08-14T00:35:30;5.15;;;3.60;;
61709;SDS011;47633;51.494;5.386;2022-08-14T00:37:56;4.93;;;3.30;;
61709;SDS011;47633;51.494;5.386;2022-08-14T00:40:22;5.57;;;3.38;;
61709;SDS011;47633;51.494;5.386;2022-08-14T00:42:48;7.22;;;3.38;;
61709;SDS011;47633;51.494;5.386;2022-08-14T00:45:14;6.90;;;3.30;;
61709;SDS011;47633;51.494;5.386;2022-08-14T00:47:42;4.93;;;3.20;;
61709;SDS011;47633;51.494;5.386;2022-08-14T00:50:09;4.70;;;3.40;;
61709;SDS011;47633;51.494;5.386;2022-08-14T00:52:37;5.10;;;3.50;;
61709;SDS011;47633;51.494;5.386;2022-08-14T00:55:04;5.57;;;3.22;;
61709;SDS011;47633;51.494;5.386;2022-08-14T00:57:32;4.85;;;3.22;;
61709;SDS011;47633;51.494;5.386;2022-08-14T01:00:00;5.85;;;3.50;;
61709;SDS011;47633;51.494;5.386;2022-08-14T01:02:26;4.78;;;3.30;;
61709;SDS011;47633;51.494;5.386;2022-08-14T01:04:53;4.55;;;3.20;;
61709;SDS011;47633;51.494;5.386;2022-08-14T01:07:22;5.50;;;3.75;;
61709;SDS011;47633;51.494;5.386;2022-08-14T01:09:50;4.32;;;3.10;;
61709;SDS011;47633;51.494;5.386;2022-08-14T01:12:21;4.63;;;3.40;;
61709;SDS011;47633;51.494;5.386;2022-08-14T01:14:48;5.95;;;3.60;;
61709;SDS011;47633;51.494;5.386;2022-08-14T01:17:19;4.90;;;3.50;;
61709;SDS011;47633;51.494;5.386;2022-08-14T01:19:45;5.25;;;3.35;;
61709;SDS011;47633;51.494;5.386;2022-08-14T01:22:29;4.90;;;3.55;;
61709;SDS011;47633;51.494;5.386;2022-08-14T01:24:54;6.45;;;4.10;;
61709;SDS011;47633;51.494;5.386;2022-08-14T01:27:21;6.13;;;3.75;;
61709;SDS011;47633;51.494;5.386;2022-08-14T01:29:48;6.03;;;3.50;;
61709;SDS011;47633;51.494;5.386;2022-08-14T01:32:18;5.25;;;3.63;;
61709;SDS011;47633;51.494;5.386;2022-08-14T01:34:49;4.28;;;3.38;;
61709;SDS011;47633;51.494;5.386;2022-08-14T01:37:19;4.77;;;3.60;;
61709;SDS011;47633;51.494;5.386;2022-08-14T01:39:48;5.28;;;3.53;;
61709;SDS011;47633;51.494;5.386;2022-08-14T01:42:15;6.15;;;4.00;;
61709;SDS011;47633;51.494;5.386;2022-08-14T01:44:40;5.03;;;3.63;;
61709;SDS011;47633;51.494;5.386;2022-08-14T01:47:06;5.07;;;3.90;;
61709;SDS011;47633;51.494;5.386;2022-08-14T01:49:39;5.47;;;3.70;;
61709;SDS011;47633;51.494;5.386;2022-08-14T01:52:05;6.15;;;3.83;;
61709;SDS011;47633;51.494;5.386;2022-08-14T01:54:31;4.82;;;3.90;;
61709;SDS011;47633;51.494;5.386;2022-08-14T01:56:58;6.20;;;4.20;;
61709;SDS011;47633;51.494;5.386;2022-08-14T01:59:24;5.97;;;3.47;;
61709;SDS011;47633;51.494;5.386;2022-08-14T02:01:58;5.75;;;3.72;;
61709;SDS011;47633;51.494;5.386;2022-08-14T02:04:28;5.30;;;3.70;;
61709;SDS011;47633;51.494;5.386;2022-08-14T02:06:55;5.57;;;3.60;;
61709;SDS011;47633;51.494;5.386;2022-08-14T02:09:21;5.28;;;3.90;;
61709;SDS011;47633;51.494;5.386;2022-08-14T02:11:46;6.18;;;3.78;;
61709;SDS011;47633;51.494;5.386;2022-08-14T02:14:13;5.00;;;3.70;;
61709;SDS011;47633;51.494;5.386;2022-08-14T02:16:40;6.88;;;4.00;;
61709;SDS011;47633;51.494;5.386;2022-08-14T02:19:10;6.63;;;4.18;;
61709;SDS011;47633;51.494;5.386;2022-08-14T02:21:38;5.50;;;4.20;;
61709;SDS011;47633;51.494;5.386;2022-08-14T02:24:04;6.82;;;3.83;;
61709;SDS011;47633;51.494;5.386;2022-08-14T02:26:33;4.78;;;3.53;;
61709;SDS011;47633;51.494;5.386;2022-08-14T02:29:10;7.13;;;3.65;;
61709;SDS011;47633;51.494;5.386;2022-08-14T02:31:37;7.03;;;4.57;;
61709;SDS011;47633;51.494;5.386;2022-08-14T02:34:06;6.35;;;3.78;;
61709;SDS011;47633;51.494;5.386;2022-08-14T02:36:35;5.30;;;3.85;;
61709;SDS011;47633;51.494;5.386;2022-08-14T02:39:04;5.18;;;3.88;;
61709;SDS011;47633;51.494;5.386;2022-08-14T02:41:31;5.43;;;4.53;;
61709;SDS011;47633;51.494;5.386;2022-08-14T02:43:58;5.40;;;3.95;;
61709;SDS011;47633;51.494;5.386;2022-08-14T02:46:23;6.93;;;3.97;;
61709;SDS011;47633;51.494;5.386;2022-08-14T02:48:49;6.50;;;4.10;;
61709;SDS011;47633;51.494;5.386;2022-08-14T02:51:14;5.57;;;4.17;;
61709;SDS011;47633;51.494;5.386;2022-08-14T02:53:43;5.43;;;4.00;;
61709;SDS011;47633;51.494;5.386;2022-08-14T02:56:10;5.85;;;3.78;;
61709;SDS011;47633;51.494;5.386;2022-08-14T02:58:39;4.93;;;3.67;;
61709;SDS011;47633;51.494;5.386;2022-08-14T03:01:08;5.53;;;3.92;;
61709;SDS011;47633;51.494;5.386;2022-08-14T03:03:35;4.85;;;3.78;;
61709;SDS011;47633;51.494;5.386;2022-08-14T03:06:04;4.75;;;4.00;;
61709;SDS011;47633;51.494;5.386;2022-08-14T03:08:31;6.38;;;4.15;;
61709;SDS011;47633;51.494;5.386;2022-08-14T03:10:58;6.15;;;4.00;;
61709;SDS011;47633;51.494;5.386;2022-08-14T03:13:30;5.77;;;3.80;;
61709;SDS011;47633;51.494;5.386;2022-08-14T03:16:00;6.40;;;4.10;;
61709;SDS011;47633;51.494;5.386;2022-08-14T03:18:26;8.38;;;4.38;;
61709;SDS011;47633;51.494;5.386;2022-08-14T03:20:52;5.60;;;4.10;;
61709;SDS011;47633;51.494;5.386;2022-08-14T03:23:18;6.03;;;4.15;;
61709;SDS011;47633;51.494;5.386;2022-08-14T03:25:44;5.00;;;3.80;;
61709;SDS011;47633;51.494;5.386;2022-08-14T03:28:10;10.35;;;4.20;;
61709;SDS011;47633;51.494;5.386;2022-08-14T03:30:36;5.50;;;3.83;;
61709;SDS011;47633;51.494;5.386;2022-08-14T03:33:02;5.22;;;3.60;;
61709;SDS011;47633;51.494;5.386;2022-08-14T03:35:28;5.72;;;4.28;;
61709;SDS011;47633;51.494;5.386;2022-08-14T03:37:54;5.40;;;4.30;;
61709;SDS011;47633;51.494;5.386;2022-08-14T03:40:21;4.93;;;3.83;;
61709;SDS011;47633;51.494;5.386;2022-08-14T03:42:48;5.90;;;3.95;;
61709;SDS011;47633;51.494;5.386;2022-08-14T03:45:14;5.38;;;4.20;;
61709;SDS011;47633;51.494;5.386;2022-08-14T03:47:40;5.90;;;4.30;;
61709;SDS011;47633;51.494;5.386;2022-08-14T03:50:06;5.88;;;4.40;;
61709;SDS011;47633;51.494;5.386;2022-08-14T03:52:34;4.55;;;3.60;;
61709;SDS011;47633;51.494;5.386;2022-08-14T03:55:05;6.00;;;4.43;;
61709;SDS011;47633;51.494;5.386;2022-08-14T03:57:32;7.13;;;4.43;;
61709;SDS011;47633;51.494;5.386;2022-08-14T03:59:59;5.30;;;4.00;;
61709;SDS011;47633;51.494;5.386;2022-08-14T04:02:30;5.30;;;3.80;;
61709;SDS011;47633;51.494;5.386;2022-08-14T04:04:55;6.17;;;4.50;;
61709;SDS011;47633;51.494;5.386;2022-08-14T04:07:20;5.68;;;3.92;;
61709;SDS011;47633;51.494;5.386;2022-08-14T04:09:46;5.50;;;3.85;;
61709;SDS011;47633;51.494;5.386;2022-08-14T04:12:11;5.35;;;3.75;;
61709;SDS011;47633;51.494;5.386;2022-08-14T04:14:36;7.17;;;3.97;;
61709;SDS011;47633;51.494;5.386;2022-08-14T04:17:02;5.80;;;4.03;;
61709;SDS011;47633;51.494;5.386;2022-08-14T04:19:28;6.88;;;4.30;;
61709;SDS011;47633;51.494;5.386;2022-08-14T04:21:54;6.55;;;4.03;;
61709;SDS011;47633;51.494;5.386;2022-08-14T04:24:19;6.17;;;4.40;;
61709;SDS011;47633;51.494;5.386;2022-08-14T04:26:44;5.47;;;4.03;;
61709;SDS011;47633;51.494;5.386;2022-08-14T04:29:10;5.82;;;4.15;;
61709;SDS011;47633;51.494;5.386;2022-08-14T04:31:37;4.93;;;3.90;;
61709;SDS011;47633;51.494;5.386;2022-08-14T04:34:03;5.45;;;3.90;;
61709;SDS011;47633;51.494;5.386;2022-08-14T04:36:29;5.43;;;4.13;;
61709;SDS011;47633;51.494;5.386;2022-08-14T04:38:55;5.13;;;4.07;;
61709;SDS011;47633;51.494;5.386;2022-08-14T04:41:39;5.22;;;3.90;;
61709;SDS011;47633;51.494;5.386;2022-08-14T04:44:23;6.03;;;4.05;;
61709;SDS011;47633;51.494;5.386;2022-08-14T04:46:48;6.40;;;4.03;;
61709;SDS011;47633;51.494;5.386;2022-08-14T04:49:32;5.70;;;4.45;;
61709;SDS011;47633;51.494;5.386;2022-08-14T04:51:58;5.95;;;3.97;;
61709;SDS011;47633;51.494;5.386;2022-08-14T04:54:24;7.28;;;4.43;;
61709;SDS011;47633;51.494;5.386;2022-08-14T04:56:50;5.18;;;4.03;;
61709;SDS011;47633;51.494;5.386;2022-08-14T04:59:16;6.10;;;4.45;;
61709;SDS011;47633;51.494;5.386;2022-08-14T05:01:42;6.47;;;4.10;;
61709;SDS011;47633;51.494;5.386;2022-08-14T05:04:08;5.00;;;3.75;;
61709;SDS011;47633;51.494;5.386;2022-08-14T05:06:36;6.20;;;4.28;;
61709;SDS011;47633;51.494;5.386;2022-08-14T05:09:02;5.40;;;4.22;;
61709;SDS011;47633;51.494;5.386;2022-08-14T05:11:28;6.25;;;4.35;;
61709;SDS011;47633;51.494;5.386;2022-08-14T05:13:57;6.82;;;4.40;;
61709;SDS011;47633;51.494;5.386;2022-08-14T05:16:26;5.03;;;4.03;;
61709;SDS011;47633;51.494;5.386;2022-08-14T05:18:55;6.55;;;4.30;;
61709;SDS011;47633;51.494;5.386;2022-08-14T05:21:20;5.60;;;4.28;;
61709;SDS011;47633;51.494;5.386;2022-08-14T05:23:45;6.57;;;4.57;;
61709;SDS011;47633;51.494;5.386;2022-08-14T05:26:11;5.38;;;4.15;;
61709;SDS011;47633;51.494;5.386;2022-08-14T05:28:41;4.90;;;3.88;;
61709;SDS011;47633;51.494;5.386;2022-08-14T05:31:10;4.80;;;4.20;;
61709;SDS011;47633;51.494;5.386;2022-08-14T05:33:41;5.43;;;4.32;;
61709;SDS011;47633;51.494;5.386;2022-08-14T05:36:07;6.45;;;4.57;;
61709;SDS011;47633;51.494;5.386;2022-08-14T05:38:37;5.22;;;4.00;;
61709;SDS011;47633;51.494;5.386;2022-08-14T05:41:10;6.65;;;4.45;;
61709;SDS011;47633;51.494;5.386;2022-08-14T05:43:44;5.75;;;4.10;;
61709;SDS011;47633;51.494;5.386;2022-08-14T05:46:12;5.80;;;4.13;;
61709;SDS011;47633;51.494;5.386;2022-08-14T05:48:39;6.38;;;4.30;;
61709;SDS011;47633;51.494;5.386;2022-08-14T05:51:04;6.28;;;4.30;;
61709;SDS011;47633;51.494;5.386;2022-08-14T05:53:30;16.90;;;4.88;;
61709;SDS011;47633;51.494;5.386;2022-08-14T05:55:55;9.25;;;5.63;;
61709;SDS011;47633;51.494;5.386;2022-08-14T05:58:22;8.45;;;5.50;;
61709;SDS011;47633;51.494;5.386;2022-08-14T06:00:48;9.60;;;6.03;;
61709;SDS011;47633;51.494;5.386;2022-08-14T06:03:16;8.77;;;6.15;;
61709;SDS011;47633;51.494;5.386;2022-08-14T06:05:47;8.18;;;5.55;;
61709;SDS011;47633;51.494;5.386;2022-08-14T06:08:25;9.20;;;6.35;;
61709;SDS011;47633;51.494;5.386;2022-08-14T06:10:53;7.38;;;5.88;;
61709;SDS011;47633;51.494;5.386;2022-08-14T06:13:19;6.80;;;5.57;;
61709;SDS011;47633;51.494;5.386;2022-08-14T06:15:46;7.03;;;5.90;;
61709;SDS011;47633;51.494;5.386;2022-08-14T06:18:13;8.65;;;6.05;;
61709;SDS011;47633;51.494;5.386;2022-08-14T06:20:39;9.73;;;6.25;;
61709;SDS011;47633;51.494;5.386;2022-08-14T06:23:04;8.27;;;6.78;;
61709;SDS011;47633;51.494;5.386;2022-08-14T06:25:30;7.78;;;5.57;;
61709;SDS011;47633;51.494;5.386;2022-08-14T06:27:55;8.00;;;5.68;;
61709;SDS011;47633;51.494;5.386;2022-08-14T06:30:22;9.20;;;6.10;;
61709;SDS011;47633;51.494;5.386;2022-08-14T06:32:50;7.60;;;6.07;;
61709;SDS011;47633;51.494;5.386;2022-08-14T06:35:15;6.53;;;5.70;;
61709;SDS011;47633;51.494;5.386;2022-08-14T06:37:51;10.35;;;5.90;;
61709;SDS011;47633;51.494;5.386;2022-08-14T06:42:43;7.47;;;5.83;;
61709;SDS011;47633;51.494;5.386;2022-08-14T06:45:08;6.28;;;5.68;;
61709;SDS011;47633;51.494;5.386;2022-08-14T06:47:35;7.95;;;6.15;;
61709;SDS011;47633;51.494;5.386;2022-08-14T06:50:05;6.30;;;5.63;;
61709;SDS011;47633;51.494;5.386;2022-08-14T06:52:32;10.80;;;5.40;;
61709;SDS011;47633;51.494;5.386;2022-08-14T06:54:57;6.68;;;5.68;;
61709;SDS011;47633;51.494;5.386;2022-08-14T06:57:23;6.57;;;5.07;;
61709;SDS011;47633;51.494;5.386;2022-08-14T06:59:49;7.07;;;5.63;;
61709;SDS011;47633;51.494;5.386;2022-08-14T07:02:14;8.60;;;5.60;;
61709;SDS011;47633;51.494;5.386;2022-08-14T07:04:58;7.35;;;5.60;;
61709;SDS011;47633;51.494;5.386;2022-08-14T07:07:42;6.88;;;5.38;;
61709;SDS011;47633;51.494;5.386;2022-08-14T07:10:08;6.05;;;5.15;;
61709;SDS011;47633;51.494;5.386;2022-08-14T07:12:34;6.90;;;5.45;;
61709;SDS011;47633;51.494;5.386;2022-08-14T07:15:00;6.03;;;5.38;;
61709;SDS011;47633;51.494;5.386;2022-08-14T07:17:25;6.97;;;5.50;;
61709;SDS011;47633;51.494;5.386;2022-08-14T07:19:51;8.57;;;5.10;;
61709;SDS011;47633;51.494;5.386;2022-08-14T07:22:16;6.32;;;5.55;;
61709;SDS011;47633;51.494;5.386;2022-08-14T07:24:42;8.45;;;5.10;;
61709;SDS011;47633;51.494;5.386;2022-08-14T07:27:07;5.90;;;4.80;;
61709;SDS011;47633;51.494;5.386;2022-08-14T07:29:33;5.93;;;4.67;;
61709;SDS011;47633;51.494;5.386;2022-08-14T07:31:58;5.78;;;4.47;;
61709;SDS011;47633;51.494;5.386;2022-08-14T07:34:23;6.00;;;4.87;;
61709;SDS011;47633;51.494;5.386;2022-08-14T07:36:49;6.68;;;4.80;;
61709;SDS011;47633;51.494;5.386;2022-08-14T07:39:14;6.80;;;4.50;;
61709;SDS011;47633;51.494;5.386;2022-08-14T07:41:39;6.03;;;4.63;;
61709;SDS011;47633;51.494;5.386;2022-08-14T07:44:05;5.60;;;4.60;;
61709;SDS011;47633;51.494;5.386;2022-08-14T07:46:30;6.13;;;4.73;;
61709;SDS011;47633;51.494;5.386;2022-08-14T07:48:56;6.15;;;4.78;;
61709;SDS011;47633;51.494;5.386;2022-08-14T07:51:22;6.65;;;5.00;;
61709;SDS011;47633;51.494;5.386;2022-08-14T07:53:47;6.03;;;4.70;;
61709;SDS011;47633;51.494;5.386;2022-08-14T07:56:13;5.82;;;4.88;;
61709;SDS011;47633;51.494;5.386;2022-08-14T07:58:38;7.30;;;4.70;;
61709;SDS011;47633;51.494;5.386;2022-08-14T08:01:04;5.47;;;4.80;;
61709;SDS011;47633;51.494;5.386;2022-08-14T08:03:32;5.85;;;4.60;;
61709;SDS011;47633;51.494;5.386;2022-08-14T08:05:59;6.10;;;4.70;;
61709;SDS011;47633;51.494;5.386;2022-08-14T08:08:25;6.03;;;4.80;;
61709;SDS011;47633;51.494;5.386;2022-08-14T08:10:54;7.03;;;4.63;;
61709;SDS011;47633;51.494;5.386;2022-08-14T08:13:21;5.93;;;4.60;;
61709;SDS011;47633;51.494;5.386;2022-08-14T08:15:51;5.30;;;4.38;;
61709;SDS011;47633;51.494;5.386;2022-08-14T08:18:18;5.95;;;4.85;;
61709;SDS011;47633;51.494;5.386;2022-08-14T08:20:49;6.07;;;4.13;;
61709;SDS011;47633;51.494;5.386;2022-08-14T08:23:17;5.50;;;4.00;;
61709;SDS011;47633;51.494;5.386;2022-08-14T08:25:44;5.78;;;4.45;;
61709;SDS011;47633;51.494;5.386;2022-08-14T08:30:53;5.53;;;4.20;;
61709;SDS011;47633;51.494;5.386;2022-08-14T08:33:21;5.30;;;4.22;;
61709;SDS011;47633;51.494;5.386;2022-08-14T08:35:48;6.00;;;4.32;;
61709;SDS011;47633;51.494;5.386;2022-08-14T08:38:15;4.93;;;3.92;;
61709;SDS011;47633;51.494;5.386;2022-08-14T08:40:47;5.57;;;4.13;;
61709;SDS011;47633;51.494;5.386;2022-08-14T08:43:21;5.28;;;4.50;;
61709;SDS011;47633;51.494;5.386;2022-08-14T08:48:23;6.47;;;4.55;;
61709;SDS011;47633;51.494;5.386;2022-08-14T08:50:58;5.10;;;4.32;;
61709;SDS011;47633;51.494;5.386;2022-08-14T08:53:29;4.93;;;4.10;;
61709;SDS011;47633;51.494;5.386;2022-08-14T08:55:56;5.30;;;4.25;;
61709;SDS011;47633;51.494;5.386;2022-08-14T08:58:22;5.45;;;4.10;;
61709;SDS011;47633;51.494;5.386;2022-08-14T09:00:48;5.90;;;4.10;;
61709;SDS011;47633;51.494;5.386;2022-08-14T09:03:17;4.60;;;3.80;;
61709;SDS011;47633;51.494;5.386;2022-08-14T09:05:49;5.75;;;4.10;;
61709;SDS011;47633;51.494;5.386;2022-08-14T09:08:16;4.95;;;4.07;;
61709;SDS011;47633;51.494;5.386;2022-08-14T09:10:53;5.70;;;4.35;;
61709;SDS011;47633;51.494;5.386;2022-08-14T09:13:21;5.43;;;4.03;;
61709;SDS011;47633;51.494;5.386;2022-08-14T09:15:50;5.45;;;4.10;;
61709;SDS011;47633;51.494;5.386;2022-08-14T09:18:17;5.15;;;3.95;;
61709;SDS011;47633;51.494;5.386;2022-08-14T09:20:44;5.22;;;4.03;;
61709;SDS011;47633;51.494;5.386;2022-08-14T09:23:11;5.72;;;4.05;;
61709;SDS011;47633;51.494;5.386;2022-08-14T09:25:38;4.95;;;4.30;;
61709;SDS011;47633;51.494;5.386;2022-08-14T09:28:05;5.05;;;4.07;;
61709;SDS011;47633;51.494;5.386;2022-08-14T09:30:32;5.35;;;4.22;;
61709;SDS011;47633;51.494;5.386;2022-08-14T09:35:35;5.33;;;4.23;;
61709;SDS011;47633;51.494;5.386;2022-08-14T09:38:27;4.97;;;3.88;;
61709;SDS011;47633;51.494;5.386;2022-08-14T09:44:16;5.57;;;4.10;;
61709;SDS011;47633;51.494;5.386;2022-08-14T09:47:03;5.85;;;4.22;;
61709;SDS011;47633;51.494;5.386;2022-08-14T09:49:30;5.07;;;3.83;;
61709;SDS011;47633;51.494;5.386;2022-08-14T09:57:02;5.00;;;4.00;;
61709;SDS011;47633;51.494;5.386;2022-08-14T09:59:37;4.80;;;3.50;;
61709;SDS011;47633;51.494;5.386;2022-08-14T10:02:16;5.53;;;4.18;;
61709;SDS011;47633;51.494;5.386;2022-08-14T10:04:58;5.40;;;4.07;;
61709;SDS011;47633;51.494;5.386;2022-08-14T10:07:33;5.05;;;3.60;;
61709;SDS011;47633;51.494;5.386;2022-08-14T10:10:14;4.93;;;3.70;;
61709;SDS011;47633;51.494;5.386;2022-08-14T10:13:05;4.60;;;3.58;;
61709;SDS011;47633;51.494;5.386;2022-08-14T10:15:32;4.82;;;3.83;;
61709;SDS011;47633;51.494;5.386;2022-08-14T10:18:12;4.95;;;3.50;;
61709;SDS011;47633;51.494;5.386;2022-08-14T10:20:42;5.38;;;3.90;;
61709;SDS011;47633;51.494;5.386;2022-08-14T10:23:19;5.10;;;3.70;;
61709;SDS011;47633;51.494;5.386;2022-08-14T10:25:47;4.85;;;3.60;;
61709;SDS011;47633;51.494;5.386;2022-08-14T10:28:15;5.18;;;3.50;;
61709;SDS011;47633;51.494;5.386;2022-08-14T10:30:42;5.45;;;3.90;;
61709;SDS011;47633;51.494;5.386;2022-08-14T10:33:33;4.85;;;3.70;;
61709;SDS011;47633;51.494;5.386;2022-08-14T10:35:58;4.55;;;3.45;;
61709;SDS011;47633;51.494;5.386;2022-08-14T10:38:31;5.18;;;3.60;;
61709;SDS011;47633;51.494;5.386;2022-08-14T10:41:14;5.00;;;3.95;;
61709;SDS011;47633;51.494;5.386;2022-08-14T10:43:42;5.13;;;4.10;;
61709;SDS011;47633;51.494;5.386;2022-08-14T10:46:13;5.20;;;3.85;;
61709;SDS011;47633;51.494;5.386;2022-08-14T10:48:40;4.93;;;3.80;;
61709;SDS011;47633;51.494;5.386;2022-08-14T10:51:23;4.50;;;3.63;;
61709;SDS011;47633;51.494;5.386;2022-08-14T10:53:52;5.20;;;3.90;;
61709;SDS011;47633;51.494;5.386;2022-08-14T10:56:27;5.05;;;3.50;;
61709;SDS011;47633;51.494;5.386;2022-08-14T10:59:06;4.68;;;3.55;;
61709;SDS011;47633;51.494;5.386;2022-08-14T11:01:32;6.03;;;3.80;;
61709;SDS011;47633;51.494;5.386;2022-08-14T11:03:59;4.88;;;3.80;;
61709;SDS011;47633;51.494;5.386;2022-08-14T11:06:26;5.07;;;3.90;;
61709;SDS011;47633;51.494;5.386;2022-08-14T11:08:52;5.38;;;3.40;;
61709;SDS011;47633;51.494;5.386;2022-08-14T11:11:19;5.10;;;3.83;;
61709;SDS011;47633;51.494;5.386;2022-08-14T11:13:46;4.95;;;3.60;;
61709;SDS011;47633;51.494;5.386;2022-08-14T11:16:14;6.78;;;4.00;;
61709;SDS011;47633;51.494;5.386;2022-08-14T11:18:42;4.95;;;3.80;;
61709;SDS011;47633;51.494;5.386;2022-08-14T11:21:11;4.90;;;3.60;;
61709;SDS011;47633;51.494;5.386;2022-08-14T11:23:39;5.18;;;4.00;;
61709;SDS011;47633;51.494;5.386;2022-08-14T11:26:04;6.37;;;4.20;;
61709;SDS011;47633;51.494;5.386;2022-08-14T11:28:32;5.70;;;4.00;;
61709;SDS011;47633;51.494;5.386;2022-08-14T11:31:02;5.32;;;3.90;;
61709;SDS011;47633;51.494;5.386;2022-08-14T11:33:30;4.85;;;3.75;;
61709;SDS011;47633;51.494;5.386;2022-08-14T11:35:59;6.00;;;3.75;;
61709;SDS011;47633;51.494;5.386;2022-08-14T11:38:26;4.97;;;3.63;;
61709;SDS011;47633;51.494;5.386;2022-08-14T11:40:54;5.50;;;3.80;;
61709;SDS011;47633;51.494;5.386;2022-08-14T11:43:21;6.43;;;4.00;;
61709;SDS011;47633;51.494;5.386;2022-08-14T11:45:46;5.78;;;4.13;;
61709;SDS011;47633;51.494;5.386;2022-08-14T11:48:14;5.07;;;3.95;;
61709;SDS011;47633;51.494;5.386;2022-08-14T11:50:42;6.60;;;4.00;;
61709;SDS011;47633;51.494;5.386;2022-08-14T11:53:17;8.38;;;4.00;;
61709;SDS011;47633;51.494;5.386;2022-08-14T11:55:54;7.63;;;4.00;;
61709;SDS011;47633;51.494;5.386;2022-08-14T11:58:29;8.40;;;3.88;;
61709;SDS011;47633;51.494;5.386;2022-08-14T12:03:33;6.97;;;3.97;;
61709;SDS011;47633;51.494;5.386;2022-08-14T12:06:05;6.07;;;3.78;;
61709;SDS011;47633;51.494;5.386;2022-08-14T12:08:32;5.78;;;4.10;;
61709;SDS011;47633;51.494;5.386;2022-08-14T12:10:59;4.68;;;3.63;;
61709;SDS011;47633;51.494;5.386;2022-08-14T12:13:24;5.22;;;3.47;;
61709;SDS011;47633;51.494;5.386;2022-08-14T12:15:56;4.93;;;3.85;;
61709;SDS011;47633;51.494;5.386;2022-08-14T12:18:28;4.57;;;3.53;;
61709;SDS011;47633;51.494;5.386;2022-08-14T12:20:56;6.75;;;3.75;;
61709;SDS011;47633;51.494;5.386;2022-08-14T12:23:23;5.00;;;3.53;;
61709;SDS011;47633;51.494;5.386;2022-08-14T12:25:49;6.22;;;3.72;;
61709;SDS011;47633;51.494;5.386;2022-08-14T12:28:28;5.13;;;3.78;;
61709;SDS011;47633;51.494;5.386;2022-08-14T12:30:53;5.03;;;3.28;;
61709;SDS011;47633;51.494;5.386;2022-08-14T12:33:23;5.20;;;3.80;;
61709;SDS011;47633;51.494;5.386;2022-08-14T12:35:53;6.27;;;3.97;;
61709;SDS011;47633;51.494;5.386;2022-08-14T12:38:29;5.15;;;3.70;;
61709;SDS011;47633;51.494;5.386;2022-08-14T12:40:56;4.50;;;3.67;;
61709;SDS011;47633;51.494;5.386;2022-08-14T12:43:23;5.45;;;3.70;;
61709;SDS011;47633;51.494;5.386;2022-08-14T12:45:49;5.45;;;3.70;;
61709;SDS011;47633;51.494;5.386;2022-08-14T12:48:19;5.40;;;3.80;;
61709;SDS011;47633;51.494;5.386;2022-08-14T12:50:46;5.63;;;3.83;;
61709;SDS011;47633;51.494;5.386;2022-08-14T12:53:16;6.35;;;3.60;;
61709;SDS011;47633;51.494;5.386;2022-08-14T12:55:42;5.10;;;3.40;;
61709;SDS011;47633;51.494;5.386;2022-08-14T12:58:09;5.25;;;3.90;;
61709;SDS011;47633;51.494;5.386;2022-08-14T13:00:36;4.63;;;3.40;;
61709;SDS011;47633;51.494;5.386;2022-08-14T13:03:21;5.40;;;4.00;;
61709;SDS011;47633;51.494;5.386;2022-08-14T13:05:48;6.13;;;3.78;;
61709;SDS011;47633;51.494;5.386;2022-08-14T13:08:14;5.38;;;3.78;;
61709;SDS011;47633;51.494;5.386;2022-08-14T13:10:40;7.47;;;3.85;;
61709;SDS011;47633;51.494;5.386;2022-08-14T13:13:06;5.53;;;3.85;;
61709;SDS011;47633;51.494;5.386;2022-08-14T13:15:36;5.85;;;3.47;;
61709;SDS011;47633;51.494;5.386;2022-08-14T13:18:04;5.07;;;3.55;;
61709;SDS011;47633;51.494;5.386;2022-08-14T13:20:30;4.90;;;3.60;;
61709;SDS011;47633;51.494;5.386;2022-08-14T13:22:55;4.50;;;3.40;;
61709;SDS011;47633;51.494;5.386;2022-08-14T13:25:22;4.47;;;3.55;;
61709;SDS011;47633;51.494;5.386;2022-08-14T13:27:49;6.53;;;3.60;;
61709;SDS011;47633;51.494;5.386;2022-08-14T13:30:18;7.53;;;3.75;;
61709;SDS011;47633;51.494;5.386;2022-08-14T13:32:44;6.50;;;3.53;;
61709;SDS011;47633;51.494;5.386;2022-08-14T13:35:11;6.28;;;3.45;;
61709;SDS011;47633;51.494;5.386;2022-08-14T13:37:39;6.05;;;3.75;;
61709;SDS011;47633;51.494;5.386;2022-08-14T13:40:06;5.18;;;3.83;;
61709;SDS011;47633;51.494;5.386;2022-08-14T13:42:32;6.80;;;3.72;;
61709;SDS011;47633;51.494;5.386;2022-08-14T13:44:59;6.97;;;4.30;;
61709;SDS011;47633;51.494;5.386;2022-08-14T13:47:27;6.20;;;4.00;;
61709;SDS011;47633;51.494;5.386;2022-08-14T13:49:56;5.90;;;3.83;;
61709;SDS011;47633;51.494;5.386;2022-08-14T13:52:29;7.20;;;3.80;;
61709;SDS011;47633;51.494;5.386;2022-08-14T13:55:00;5.25;;;3.67;;
61709;SDS011;47633;51.494;5.386;2022-08-14T13:57:28;6.22;;;4.00;;
61709;SDS011;47633;51.494;5.386;2022-08-14T13:59:56;5.43;;;3.50;;
61709;SDS011;47633;51.494;5.386;2022-08-14T14:02:25;5.88;;;3.58;;
61709;SDS011;47633;51.494;5.386;2022-08-14T14:04:53;7.82;;;3.60;;
61709;SDS011;47633;51.494;5.386;2022-08-14T14:07:24;6.50;;;3.70;;
61709;SDS011;47633;51.494;5.386;2022-08-14T14:09:52;5.57;;;3.47;;
61709;SDS011;47633;51.494;5.386;2022-08-14T14:12:20;6.28;;;3.47;;
61709;SDS011;47633;51.494;5.386;2022-08-14T14:14:46;5.97;;;3.80;;
61709;SDS011;47633;51.494;5.386;2022-08-14T14:17:11;5.40;;;3.40;;
61709;SDS011;47633;51.494;5.386;2022-08-14T14:19:39;5.85;;;3.53;;
61709;SDS011;47633;51.494;5.386;2022-08-14T14:22:11;6.72;;;3.95;;
61709;SDS011;47633;51.494;5.386;2022-08-14T14:24:39;9.48;;;3.88;;
61709;SDS011;47633;51.494;5.386;2022-08-14T14:27:04;6.18;;;3.65;;
61709;SDS011;47633;51.494;5.386;2022-08-14T14:29:30;5.63;;;3.70;;
61709;SDS011;47633;51.494;5.386;2022-08-14T14:31:57;6.38;;;3.75;;
61709;SDS011;47633;51.494;5.386;2022-08-14T14:34:24;5.13;;;3.72;;
61709;SDS011;47633;51.494;5.386;2022-08-14T14:36:50;6.57;;;3.72;;
61709;SDS011;47633;51.494;5.386;2022-08-14T14:39:19;5.78;;;3.60;;
61709;SDS011;47633;51.494;5.386;2022-08-14T14:41:47;5.97;;;3.47;;
61709;SDS011;47633;51.494;5.386;2022-08-14T14:44:16;5.18;;;3.33;;
61709;SDS011;47633;51.494;5.386;2022-08-14T14:46:46;5.00;;;3.55;;
61709;SDS011;47633;51.494;5.386;2022-08-14T14:49:14;5.32;;;3.60;;
61709;SDS011;47633;51.494;5.386;2022-08-14T14:51:44;6.85;;;3.72;;
61709;SDS011;47633;51.494;5.386;2022-08-14T14:54:11;4.82;;;3.50;;
61709;SDS011;47633;51.494;5.386;2022-08-14T14:56:38;5.95;;;3.78;;
61709;SDS011;47633;51.494;5.386;2022-08-14T14:59:03;5.47;;;3.60;;
61709;SDS011;47633;51.494;5.386;2022-08-14T15:01:30;5.38;;;3.78;;
61709;SDS011;47633;51.494;5.386;2022-08-14T15:04:00;6.47;;;3.53;;
61709;SDS011;47633;51.494;5.386;2022-08-14T15:06:27;4.57;;;3.53;;
61709;SDS011;47633;51.494;5.386;2022-08-14T15:08:55;5.15;;;3.38;;
61709;SDS011;47633;51.494;5.386;2022-08-14T15:11:21;5.78;;;3.95;;
61709;SDS011;47633;51.494;5.386;2022-08-14T15:13:47;7.50;;;3.60;;
61709;SDS011;47633;51.494;5.386;2022-08-14T15:16:13;5.25;;;3.60;;